sensor_id;sensor_type;location;lat;lon;timestamp;pressure;altitude;pressure_sealevel;temperature;humidity
28448;BME280;15675;52.870;-1.416;2022-12-05T00:01:30;101680.31;;;5.72;100.00
28448;BME280;15675;52.870;-1.416;2022-12-05T00:03:58;101671.22;;;5.81;100.00
28448;BME280;15675;52.870;-1.416;2022-12-05T00:06:27;101668.41;;;5.75;100.00
28448;BME280;15675;52.870;-1.416;2022-12-05T00:08:53;101674.44;;;5.53;100.00
28448;BME280;15675;52.870;-1.416;2022-12-05T00:11:22;101672.84;;;5.57;100.00
28448;BME280;15675;52.870;-1.416;2022-12-05T00:13:49;101675.19;;;5.50;100.00
28448;BME280;15675;52.870;-1.416;2022-12-05T00:16:17;101676.72;;;5.68;100.00
28448;BME280;15675;52.870;-1.416;2022-12-05T00:18:43;101677.09;;;5.55;100.00
28448;BME280;15675;52.870;-1.416;2022-12-05T00:21:18;101677.25;;;5.59;100.00
28448;BME280;15675;52.870;-1.416;2022-12-05T00:23:44;101674.56;;;5.56;100.00
28448;BME280;15675;52.870;-1.416;2022-12-05T00:26:11;101680.03;;;5.43;100.00
28448;BME280;15675;52.870;-1.416;2022-12-05T00:28:37;101685.91;;;5.61;100.00
28448;BME280;15675;52.870;-1.416;2022-12-05T00:31:05;101689.81;;;5.51;100.00
28448;BME280;15675;52.870;-1.416;2022-12-05T00:33:31;101686.69;;;5.59;100.00
28448;BME280;15675;52.870;-1.416;2022-12-05T00:36:01;101688.44;;;5.60;100.00
28448;BME280;15675;52.870;-1.416;2022-12-05T00:38:27;101688.75;;;5.67;100.00
28448;BME280;15675;52.870;-1.416;2022-12-05T00:40:53;101685.91;;;5.61;100.00
28448;BME280;15675;52.870;-1.416;2022-12-05T00:43:18;101690.78;;;5.53;100.00
28448;BME280;15675;52.870;-1.416;2022-12-05T00:45:44;101692.47;;;5.53;100.00
28448;BME280;15675;52.870;-1.416;2022-12-05T00:48:09;101693.69;;;5.63;100.00
28448;BME280;15675;52.870;-1.416;2022-12-05T00:50:35;101693.22;;;5.72;100.00
28448;BME280;15675;52.870;-1.416;2022-12-05T00:53:00;101696.09;;;5.58;100.00
28448;BME280;15675;52.870;-1.416;2022-12-05T00:55:26;101692.19;;;5.68;100.00
28448;BME280;15675;52.870;-1.416;2022-12-05T00:57:51;101694.59;;;5.63;100.00
28448;BME280;15675;52.870;-1.416;2022-12-05T01:00:17;101694.94;;;5.73;100.00
28448;BME280;15675;52.870;-1.416;2022-12-05T01:02:43;101699.91;;;5.68;100.00
28448;BME280;15675;52.870;-1.416;2022-12-05T01:05:08;101697.84;;;5.80;100.00
28448;BME280;15675;52.870;-1.416;2022-12-05T01:07:34;101704.09;;;5.87;100.00
28448;BME280;15675;52.870;-1.416;2022-12-05T01:09:59;101701.22;;;5.79;100.00
28448;BME280;15675;52.870;-1.416;2022-12-05T01:12:25;101700.69;;;5.88;100.00
28448;BME280;15675;52.870;-1.416;2022-12-05T01:14:54;101701.81;;;5.95;100.00
28448;BME280;15675;52.870;-1.416;2022-12-05T01:17:19;101698.13;;;5.88;100.00
28448;BME280;15675;52.870;-1.416;2022-12-05T01:19:45;101694.78;;;5.91;100.00
28448;BME280;15675;52.870;-1.416;2022-12-05T01:22:10;101692.78;;;6.04;100.00
28448;BME280;15675;52.870;-1.416;2022-12-05T01:24:36;101695.53;;;5.88;100.00
28448;BME280;15675;52.870;-1.416;2022-12-05T01:27:02;101699.06;;;6.13;100.00
28448;BME280;15675;52.870;-1.416;2022-12-05T01:29:27;101695.53;;;5.88;100.00
28448;BME280;15675;52.870;-1.416;2022-12-05T01:31:53;101701.28;;;5.81;100.00
28448;BME280;15675;52.870;-1.416;2022-12-05T01:34:19;101699.06;;;5.90;100.00
28448;BME280;15675;52.870;-1.416;2022-12-05T01:36:45;101696.28;;;5.85;100.00
28448;BME280;15675;52.870;-1.416;2022-12-05T01:39:12;101690.78;;;5.97;100.00
28448;BME280;15675;52.870;-1.416;2022-12-05T01:41:40;101695.00;;;5.97;100.00
28448;BME280;15675;52.870;-1.416;2022-12-05T01:44:56;101703.28;;;5.88;100.00
28448;BME280;15675;52.870;-1.416;2022-12-05T01:46:52;101700.56;;;6.06;100.00
28448;BME280;15675;52.870;-1.416;2022-12-05T01:49:24;101703.53;;;6.17;100.00
28448;BME280;15675;52.870;-1.416;2022-12-05T01:51:54;101704.38;;;6.16;100.00
28448;BME280;15675;52.870;-1.416;2022-12-05T01:54:21;101699.91;;;6.12;100.00
28448;BME280;15675;52.870;-1.416;2022-12-05T01:56:55;101703.31;;;6.11;100.00
28448;BME280;15675;52.870;-1.416;2022-12-05T01:59:24;101709.03;;;6.03;100.00
28448;BME280;15675;52.870;-1.416;2022-12-05T02:01:51;101700.75;;;5.90;100.00
28448;BME280;15675;52.870;-1.416;2022-12-05T02:04:16;101706.47;;;6.03;100.00
28448;BME280;15675;52.870;-1.416;2022-12-05T02:06:42;101710.25;;;5.91;100.00
28448;BME280;15675;52.870;-1.416;2022-12-05T02:09:08;101704.59;;;5.99;100.00
28448;BME280;15675;52.870;-1.416;2022-12-05T02:11:34;101708.47;;;5.90;100.00
28448;BME280;15675;52.870;-1.416;2022-12-05T02:14:19;101711.59;;;5.81;100.00
28448;BME280;15675;52.870;-1.416;2022-12-05T02:17:16;101716.97;;;5.87;100.00
28448;BME280;15675;52.870;-1.416;2022-12-05T02:20:01;101708.25;;;5.83;100.00
28448;BME280;15675;52.870;-1.416;2022-12-05T02:25:45;101718.19;;;5.97;100.00
28448;BME280;15675;52.870;-1.416;2022-12-05T02:33:46;101723.78;;;5.85;100.00
28448;BME280;15675;52.870;-1.416;2022-12-05T02:36:27;101710.19;;;5.89;100.00
28448;BME280;15675;52.870;-1.416;2022-12-05T02:39:03;101725.28;;;5.80;100.00
28448;BME280;15675;52.870;-1.416;2022-12-05T02:41:56;101720.50;;;5.89;100.00
28448;BME280;15675;52.870;-1.416;2022-12-05T02:44:32;101720.97;;;5.79;100.00
28448;BME280;15675;52.870;-1.416;2022-12-05T02:47:01;101720.56;;;5.91;100.00
28448;BME280;15675;52.870;-1.416;2022-12-05T02:49:35;101723.19;;;5.92;100.00
28448;BME280;15675;52.870;-1.416;2022-12-05T02:52:04;101723.59;;;5.80;100.00
28448;BME280;15675;52.870;-1.416;2022-12-05T02:54:37;101720.56;;;5.91;100.00
28448;BME280;15675;52.870;-1.416;2022-12-05T02:57:04;101723.81;;;6.08;100.00
28448;BME280;15675;52.870;-1.416;2022-12-05T02:59:30;101715.47;;;5.92;100.00
28448;BME280;15675;52.870;-1.416;2022-12-05T03:01:56;101720.16;;;6.02;100.00
28448;BME280;15675;52.870;-1.416;2022-12-05T03:04:23;101711.88;;;5.88;100.00
28448;BME280;15675;52.870;-1.416;2022-12-05T03:06:53;101721.00;;;6.01;100.00
28448;BME280;15675;52.870;-1.416;2022-12-05T03:09:40;101723.38;;;6.19;100.00
28448;BME280;15675;52.870;-1.416;2022-12-05T03:14:41;101724.03;;;6.14;100.00
28448;BME280;15675;52.870;-1.416;2022-12-05T03:17:11;101723.97;;;6.12;100.00
28448;BME280;15675;52.870;-1.416;2022-12-05T03:19:56;101737.81;;;6.14;100.00
28448;BME280;15675;52.870;-1.416;2022-12-05T03:23:42;101739.22;;;6.29;100.00
28448;BME280;15675;52.870;-1.416;2022-12-05T03:25:53;101744.28;;;6.26;100.00
28448;BME280;15675;52.870;-1.416;2022-12-05T03:30:55;101740.69;;;5.99;100.00
28448;BME280;15675;52.870;-1.416;2022-12-05T03:33:27;101745.56;;;5.93;100.00
28448;BME280;15675;52.870;-1.416;2022-12-05T03:36:06;101739.34;;;6.09;100.00
28448;BME280;15675;52.870;-1.416;2022-12-05T03:38:50;101736.06;;;5.92;100.00
28448;BME280;15675;52.870;-1.416;2022-12-05T03:41:31;101742.50;;;6.02;100.00
28448;BME280;15675;52.870;-1.416;2022-12-05T03:44:11;101732.03;;;5.97;100.00
28448;BME280;15675;52.870;-1.416;2022-12-05T03:46:43;101736.66;;;6.06;100.00
28448;BME280;15675;52.870;-1.416;2022-12-05T03:49:12;101733.56;;;5.94;100.00
28448;BME280;15675;52.870;-1.416;2022-12-05T03:51:58;101740.41;;;6.14;100.00
28448;BME280;15675;52.870;-1.416;2022-12-05T03:54:34;101740.47;;;5.95;100.00
28448;BME280;15675;52.870;-1.416;2022-12-05T03:59:37;101746.78;;;6.01;100.00
28448;BME280;15675;52.870;-1.416;2022-12-05T04:02:10;101747.06;;;6.09;100.00
28448;BME280;15675;52.870;-1.416;2022-12-05T04:04:44;101754.28;;;5.97;100.00
28448;BME280;15675;52.870;-1.416;2022-12-05T04:07:11;101751.84;;;6.00;100.00
28448;BME280;15675;52.870;-1.416;2022-12-05T04:09:55;101753.50;;;5.98;100.00
28448;BME280;15675;52.870;-1.416;2022-12-05T04:12:25;101757.09;;;6.01;100.00
28448;BME280;15675;52.870;-1.416;2022-12-05T04:15:04;101766.13;;;5.92;100.00
28448;BME280;15675;52.870;-1.416;2022-12-05T04:17:45;101757.00;;;6.00;100.00
28448;BME280;15675;52.870;-1.416;2022-12-05T04:20:36;101759.03;;;6.07;100.00
28448;BME280;15675;52.870;-1.416;2022-12-05T04:23:21;101763.88;;;5.99;100.00
28448;BME280;15675;52.870;-1.416;2022-12-05T04:26:39;101765.22;;;5.91;100.00
28448;BME280;15675;52.870;-1.416;2022-12-05T04:28:57;101766.94;;;5.91;100.00
28448;BME280;15675;52.870;-1.416;2022-12-05T04:31:34;101758.78;;;6.01;100.00
28448;BME280;15675;52.870;-1.416;2022-12-05T04:34:05;101763.28;;;6.07;100.00
28448;BME280;15675;52.870;-1.416;2022-12-05T04:36:39;101759.59;;;6.00;100.00
28448;BME280;15675;52.870;-1.416;2022-12-05T04:39:10;101775.91;;;5.99;100.00
28448;BME280;15675;52.870;-1.416;2022-12-05T04:41:42;101760.13;;;5.93;100.00
28448;BME280;15675;52.870;-1.416;2022-12-05T04:44:13;101766.44;;;5.99;100.00
28448;BME280;15675;52.870;-1.416;2022-12-05T04:46:42;101769.25;;;6.05;100.00
28448;BME280;15675;52.870;-1.416;2022-12-05T04:49:10;101774.25;;;6.01;100.00
28448;BME280;15675;52.870;-1.416;2022-12-05T04:51:39;101764.53;;;5.95;100.00
28448;BME280;15675;52.870;-1.416;2022-12-05T04:54:28;101771.88;;;5.84;100.00
28448;BME280;15675;52.870;-1.416;2022-12-05T04:57:02;101776.56;;;5.95;100.00
28448;BME280;15675;52.870;-1.416;2022-12-05T04:59:30;101767.94;;;5.94;100.00
28448;BME280;15675;52.870;-1.416;2022-12-05T05:02:01;101776.88;;;5.81;100.00
28448;BME280;15675;52.870;-1.416;2022-12-05T05:04:44;101776.56;;;5.95;100.00
28448;BME280;15675;52.870;-1.416;2022-12-05T05:07:12;101765.53;;;5.76;100.00
28448;BME280;15675;52.870;-1.416;2022-12-05T05:09:38;101782.72;;;5.98;100.00
28448;BME280;15675;52.870;-1.416;2022-12-05T05:12:05;101783.03;;;5.85;100.00
28448;BME280;15675;52.870;-1.416;2022-12-05T05:14:30;101785.03;;;6.13;100.00
28448;BME280;15675;52.870;-1.416;2022-12-05T05:16:56;101783.16;;;6.09;100.00
28448;BME280;15675;52.870;-1.416;2022-12-05T05:19:22;101788.53;;;5.94;100.00
28448;BME280;15675;52.870;-1.416;2022-12-05T05:21:48;101786.56;;;6.08;100.00
28448;BME280;15675;52.870;-1.416;2022-12-05T05:24:15;101779.41;;;6.01;100.00
28448;BME280;15675;52.870;-1.416;2022-12-05T05:26:43;101785.03;;;5.92;100.00
28448;BME280;15675;52.870;-1.416;2022-12-05T05:29:10;101784.66;;;6.04;100.00
28448;BME280;15675;52.870;-1.416;2022-12-05T05:31:37;101784.56;;;6.01;100.00
28448;BME280;15675;52.870;-1.416;2022-12-05T05:34:03;101786.47;;;5.85;100.00
28448;BME280;15675;52.870;-1.416;2022-12-05T05:36:29;101785.63;;;6.06;100.00
28448;BME280;15675;52.870;-1.416;2022-12-05T05:38:59;101786.75;;;5.92;100.00
28448;BME280;15675;52.870;-1.416;2022-12-05T05:41:30;101786.81;;;5.93;100.00
28448;BME280;15675;52.870;-1.416;2022-12-05T05:43:57;101801.38;;;5.93;100.00
28448;BME280;15675;52.870;-1.416;2022-12-05T05:46:25;101784.94;;;5.89;100.00
28448;BME280;15675;52.870;-1.416;2022-12-05T05:48:51;101788.31;;;5.88;100.00
28448;BME280;15675;52.870;-1.416;2022-12-05T05:51:19;101789.06;;;5.85;100.00
28448;BME280;15675;52.870;-1.416;2022-12-05T05:53:45;101785.31;;;5.77;100.00
28448;BME280;15675;52.870;-1.416;2022-12-05T05:56:13;101788.72;;;5.76;100.00
28448;BME280;15675;52.870;-1.416;2022-12-05T05:58:40;101785.44;;;5.80;100.00
28448;BME280;15675;52.870;-1.416;2022-12-05T06:01:11;101800.31;;;5.87;100.00
28448;BME280;15675;52.870;-1.416;2022-12-05T06:03:37;101799.31;;;5.63;100.00
28448;BME280;15675;52.870;-1.416;2022-12-05T06:06:05;101809.94;;;5.70;100.00
28448;BME280;15675;52.870;-1.416;2022-12-05T06:08:33;101806.41;;;5.68;100.00
28448;BME280;15675;52.870;-1.416;2022-12-05T06:11:07;101800.44;;;5.69;100.00
28448;BME280;15675;52.870;-1.416;2022-12-05T06:13:33;101806.69;;;5.75;100.00
28448;BME280;15675;52.870;-1.416;2022-12-05T06:15:59;101795.13;;;5.65;100.00
28448;BME280;15675;52.870;-1.416;2022-12-05T06:18:24;101805.66;;;5.71;100.00
28448;BME280;15675;52.870;-1.416;2022-12-05T06:20:53;101807.19;;;5.66;100.00
28448;BME280;15675;52.870;-1.416;2022-12-05T06:23:20;101819.44;;;5.72;100.00
28448;BME280;15675;52.870;-1.416;2022-12-05T06:25:50;101817.91;;;5.77;100.00
28448;BME280;15675;52.870;-1.416;2022-12-05T06:28:17;101823.69;;;5.71;100.00
28448;BME280;15675;52.870;-1.416;2022-12-05T06:30:43;101820.88;;;5.65;100.00
28448;BME280;15675;52.870;-1.416;2022-12-05T06:33:10;101816.72;;;5.47;100.00
28448;BME280;15675;52.870;-1.416;2022-12-05T06:35:35;101820.84;;;5.44;100.00
28448;BME280;15675;52.870;-1.416;2022-12-05T06:38:01;101816.16;;;5.55;100.00
28448;BME280;15675;52.870;-1.416;2022-12-05T06:40:27;101823.84;;;5.53;100.00
28448;BME280;15675;52.870;-1.416;2022-12-05T06:42:52;101826.25;;;5.50;100.00
28448;BME280;15675;52.870;-1.416;2022-12-05T06:45:17;101824.25;;;5.43;100.00
28448;BME280;15675;52.870;-1.416;2022-12-05T06:47:43;101826.59;;;5.58;100.00
28448;BME280;15675;52.870;-1.416;2022-12-05T06:50:09;101826.03;;;5.65;100.00
28448;BME280;15675;52.870;-1.416;2022-12-05T06:52:35;101834.94;;;5.52;100.00
28448;BME280;15675;52.870;-1.416;2022-12-05T06:55:01;101841.88;;;5.53;100.00
28448;BME280;15675;52.870;-1.416;2022-12-05T06:57:30;101841.59;;;5.47;100.00
28448;BME280;15675;52.870;-1.416;2022-12-05T06:59:56;101842.25;;;5.62;100.00
28448;BME280;15675;52.870;-1.416;2022-12-05T07:02:40;101836.53;;;5.69;100.00
28448;BME280;15675;52.870;-1.416;2022-12-05T07:05:07;101850.16;;;5.67;100.00
28448;BME280;15675;52.870;-1.416;2022-12-05T07:07:33;101845.00;;;5.67;100.00
28448;BME280;15675;52.870;-1.416;2022-12-05T07:09:58;101837.47;;;5.72;100.00
28448;BME280;15675;52.870;-1.416;2022-12-05T07:12:24;101846.47;;;5.60;100.00
28448;BME280;15675;52.870;-1.416;2022-12-05T07:14:50;101843.63;;;5.75;100.00
28448;BME280;15675;52.870;-1.416;2022-12-05T07:17:19;101852.03;;;5.71;100.00
28448;BME280;15675;52.870;-1.416;2022-12-05T07:19:47;101846.09;;;5.72;100.00
28448;BME280;15675;52.870;-1.416;2022-12-05T07:22:14;101842.44;;;5.88;100.00
28448;BME280;15675;52.870;-1.416;2022-12-05T07:24:40;101852.03;;;5.71;100.00
28448;BME280;15675;52.870;-1.416;2022-12-05T07:27:05;101848.03;;;5.78;100.00
28448;BME280;15675;52.870;-1.416;2022-12-05T07:29:31;101856.63;;;5.78;100.00
28448;BME280;15675;52.870;-1.416;2022-12-05T07:31:57;101848.13;;;5.60;100.00
28448;BME280;15675;52.870;-1.416;2022-12-05T07:34:22;101852.81;;;5.90;100.00
28448;BME280;15675;52.870;-1.416;2022-12-05T07:36:48;101858.41;;;5.79;100.00
28448;BME280;15675;52.870;-1.416;2022-12-05T07:39:13;101851.88;;;5.87;100.00
28448;BME280;15675;52.870;-1.416;2022-12-05T07:41:39;101858.91;;;5.70;100.00
28448;BME280;15675;52.870;-1.416;2022-12-05T07:44:04;101863.25;;;5.72;100.00
28448;BME280;15675;52.870;-1.416;2022-12-05T07:46:30;101859.19;;;5.78;100.00
28448;BME280;15675;52.870;-1.416;2022-12-05T07:48:55;101863.50;;;5.78;100.00
28448;BME280;15675;52.870;-1.416;2022-12-05T07:51:21;101861.22;;;5.85;100.00
28448;BME280;15675;52.870;-1.416;2022-12-05T07:53:47;101867.00;;;5.80;100.00
28448;BME280;15675;52.870;-1.416;2022-12-05T07:56:14;101865.34;;;5.61;100.00
28448;BME280;15675;52.870;-1.416;2022-12-05T07:58:42;101865.25;;;5.79;100.00
28448;BME280;15675;52.870;-1.416;2022-12-05T08:03:38;101872.47;;;5.66;100.00
28448;BME280;15675;52.870;-1.416;2022-12-05T08:06:06;101866.44;;;5.87;100.00
28448;BME280;15675;52.870;-1.416;2022-12-05T08:08:32;101875.06;;;5.87;100.00
28448;BME280;15675;52.870;-1.416;2022-12-05T08:11:22;101881.94;;;5.88;100.00
28448;BME280;15675;52.870;-1.416;2022-12-05T08:13:48;101880.97;;;5.85;100.00
28448;BME280;15675;52.870;-1.416;2022-12-05T08:16:16;101879.75;;;5.77;100.00
28448;BME280;15675;52.870;-1.416;2022-12-05T08:18:42;101886.75;;;5.79;100.00
28448;BME280;15675;52.870;-1.416;2022-12-05T08:21:14;101878.16;;;5.79;100.00
28448;BME280;15675;52.870;-1.416;2022-12-05T08:23:40;101880.88;;;6.03;100.00
28448;BME280;15675;52.870;-1.416;2022-12-05T08:26:18;101892.03;;;5.82;100.00
28448;BME280;15675;52.870;-1.416;2022-12-05T08:28:45;101885.72;;;5.76;100.00
28448;BME280;15675;52.870;-1.416;2022-12-05T08:31:12;101882.84;;;5.89;100.00
28448;BME280;15675;52.870;-1.416;2022-12-05T08:33:38;101895.41;;;5.81;100.00
28448;BME280;15675;52.870;-1.416;2022-12-05T08:36:07;101902.38;;;5.84;100.00
28448;BME280;15675;52.870;-1.416;2022-12-05T08:38:33;101906.78;;;5.86;100.00
28448;BME280;15675;52.870;-1.416;2022-12-05T08:41:03;101903.59;;;5.92;100.00
28448;BME280;15675;52.870;-1.416;2022-12-05T08:43:30;101908.88;;;5.95;100.00
28448;BME280;15675;52.870;-1.416;2022-12-05T08:45:56;101916.13;;;6.04;100.00
28448;BME280;15675;52.870;-1.416;2022-12-05T08:48:22;101915.25;;;6.03;100.00
28448;BME280;15675;52.870;-1.416;2022-12-05T08:50:48;101924.50;;;5.98;100.00
28448;BME280;15675;52.870;-1.416;2022-12-05T08:53:13;101921.34;;;6.05;100.00
28448;BME280;15675;52.870;-1.416;2022-12-05T08:55:39;101928.16;;;6.03;100.00
28448;BME280;15675;52.870;-1.416;2022-12-05T08:58:05;101927.47;;;5.88;100.00
28448;BME280;15675;52.870;-1.416;2022-12-05T09:00:30;101931.53;;;6.02;100.00
28448;BME280;15675;52.870;-1.416;2022-12-05T09:02:57;101931.66;;;6.05;100.00
28448;BME280;15675;52.870;-1.416;2022-12-05T09:05:23;101938.97;;;6.16;100.00
28448;BME280;15675;52.870;-1.416;2022-12-05T09:07:49;101938.72;;;6.10;100.00
28448;BME280;15675;52.870;-1.416;2022-12-05T09:10:15;101932.56;;;6.27;100.00
28448;BME280;15675;52.870;-1.416;2022-12-05T09:12:40;101933.50;;;6.29;100.00
28448;BME280;15675;52.870;-1.416;2022-12-05T09:15:07;101933.03;;;6.18;100.00
28448;BME280;15675;52.870;-1.416;2022-12-05T09:17:33;101939.72;;;6.13;100.00
28448;BME280;15675;52.870;-1.416;2022-12-05T09:19:59;101940.97;;;6.02;100.00
28448;BME280;15675;52.870;-1.416;2022-12-05T09:22:24;101946.66;;;6.14;100.00
28448;BME280;15675;52.870;-1.416;2022-12-05T09:24:50;101942.13;;;6.09;100.00
28448;BME280;15675;52.870;-1.416;2022-12-05T09:27:15;101954.41;;;6.14;100.00
28448;BME280;15675;52.870;-1.416;2022-12-05T09:29:41;101957.03;;;6.16;100.00
28448;BME280;15675;52.870;-1.416;2022-12-05T09:32:08;101954.31;;;6.34;100.00
28448;BME280;15675;52.870;-1.416;2022-12-05T09:34:35;101953.88;;;6.23;100.00
28448;BME280;15675;52.870;-1.416;2022-12-05T09:37:01;101957.31;;;6.02;100.00
28448;BME280;15675;52.870;-1.416;2022-12-05T09:39:27;101965.16;;;6.05;100.00
28448;BME280;15675;52.870;-1.416;2022-12-05T09:47:45;101954.69;;;6.43;100.00
28448;BME280;15675;52.870;-1.416;2022-12-05T09:55:18;101964.25;;;6.46;100.00
28448;BME280;15675;52.870;-1.416;2022-12-05T09:57:56;101969.38;;;6.44;100.00
28448;BME280;15675;52.870;-1.416;2022-12-05T10:00:22;101972.88;;;6.46;100.00
28448;BME280;15675;52.870;-1.416;2022-12-05T10:02:58;101973.44;;;6.60;100.00
28448;BME280;15675;52.870;-1.416;2022-12-05T10:05:43;101967.94;;;6.52;100.00
28448;BME280;15675;52.870;-1.416;2022-12-05T10:08:23;101974.53;;;6.44;100.00
28448;BME280;15675;52.870;-1.416;2022-12-05T10:10:59;101969.94;;;6.60;100.00
28448;BME280;15675;52.870;-1.416;2022-12-05T10:16:30;101963.28;;;6.65;100.00
28448;BME280;15675;52.870;-1.416;2022-12-05T10:19:01;101973.09;;;6.52;100.00
28448;BME280;15675;52.870;-1.416;2022-12-05T10:24:22;101967.72;;;6.90;100.00
28448;BME280;15675;52.870;-1.416;2022-12-05T10:26:57;101963.13;;;6.83;100.00
28448;BME280;15675;52.870;-1.416;2022-12-05T10:29:43;101980.47;;;6.64;100.00
28448;BME280;15675;52.870;-1.416;2022-12-05T10:32:18;101963.84;;;6.79;100.00
28448;BME280;15675;52.870;-1.416;2022-12-05T10:34:46;101963.63;;;6.74;100.00
28448;BME280;15675;52.870;-1.416;2022-12-05T10:37:22;101966.34;;;6.77;100.00
28448;BME280;15675;52.870;-1.416;2022-12-05T10:39:49;101961.31;;;6.80;100.00
28448;BME280;15675;52.870;-1.416;2022-12-05T10:42:35;101970.75;;;7.02;100.00
28448;BME280;15675;52.870;-1.416;2022-12-05T10:45:03;101963.25;;;7.08;100.00
28448;BME280;15675;52.870;-1.416;2022-12-05T10:47:30;101966.16;;;6.95;100.00
28448;BME280;15675;52.870;-1.416;2022-12-05T10:50:03;101971.22;;;6.92;100.00
28448;BME280;15675;52.870;-1.416;2022-12-05T10:52:30;101968.81;;;6.97;100.00
28448;BME280;15675;52.870;-1.416;2022-12-05T10:54:59;101965.31;;;6.95;100.00
28448;BME280;15675;52.870;-1.416;2022-12-05T10:57:28;101967.81;;;6.93;100.00
28448;BME280;15675;52.870;-1.416;2022-12-05T10:59:56;101971.91;;;6.88;100.00
28448;BME280;15675;52.870;-1.416;2022-12-05T11:02:28;101959.97;;;6.90;100.00
28448;BME280;15675;52.870;-1.416;2022-12-05T11:04:55;101970.75;;;7.02;100.00
28448;BME280;15675;52.870;-1.416;2022-12-05T11:07:26;101966.59;;;7.06;100.00
28448;BME280;15675;52.870;-1.416;2022-12-05T11:09:53;101967.63;;;7.11;100.00
28448;BME280;15675;52.870;-1.416;2022-12-05T11:12:21;101965.28;;;7.17;100.00
28448;BME280;15675;52.870;-1.416;2022-12-05T11:14:55;101964.47;;;7.18;100.00
28448;BME280;15675;52.870;-1.416;2022-12-05T11:17:39;101968.75;;;7.18;100.00
28448;BME280;15675;52.870;-1.416;2022-12-05T11:22:53;101971.75;;;7.29;100.00
28448;BME280;15675;52.870;-1.416;2022-12-05T11:25:29;101971.63;;;7.25;100.00
28448;BME280;15675;52.870;-1.416;2022-12-05T11:27:56;101974.47;;;7.33;100.00
28448;BME280;15675;52.870;-1.416;2022-12-05T11:30:25;101974.22;;;7.25;100.00
28448;BME280;15675;52.870;-1.416;2022-12-05T11:33:21;101971.84;;;7.32;100.00
28448;BME280;15675;52.870;-1.416;2022-12-05T11:35:49;101969.06;;;7.25;100.00
28448;BME280;15675;52.870;-1.416;2022-12-05T11:38:17;101966.69;;;7.32;100.00
28448;BME280;15675;52.870;-1.416;2022-12-05T11:56:36;101985.47;;;7.28;100.00
28448;BME280;15675;52.870;-1.416;2022-12-05T11:59:25;101976.47;;;7.40;100.00
28448;BME280;15675;52.870;-1.416;2022-12-05T12:04:49;101979.00;;;7.39;100.00
28448;BME280;15675;52.870;-1.416;2022-12-05T12:27:02;101976.50;;;6.95;100.00
28448;BME280;15675;52.870;-1.416;2022-12-05T12:37:29;101966.38;;;7.00;100.00
28448;BME280;15675;52.870;-1.416;2022-12-05T12:40:03;101970.09;;;7.08;100.00
28448;BME280;15675;52.870;-1.416;2022-12-05T12:42:44;101956.72;;;7.18;100.00
28448;BME280;15675;52.870;-1.416;2022-12-05T12:50:26;101952.34;;;6.93;100.00
28448;BME280;15675;52.870;-1.416;2022-12-05T12:58:38;101967.94;;;7.19;100.00
28448;BME280;15675;52.870;-1.416;2022-12-05T13:04:03;101968.66;;;7.39;100.00
28448;BME280;15675;52.870;-1.416;2022-12-05T13:06:42;101965.56;;;7.25;100.00
28448;BME280;15675;52.870;-1.416;2022-12-05T13:09:17;101962.81;;;7.20;100.00
28448;BME280;15675;52.870;-1.416;2022-12-05T13:11:45;101962.63;;;7.38;100.00
28448;BME280;15675;52.870;-1.416;2022-12-05T13:14:15;101966.50;;;7.50;100.00
28448;BME280;15675;52.870;-1.416;2022-12-05T13:16:45;101960.25;;;7.45;100.00
28448;BME280;15675;52.870;-1.416;2022-12-05T13:19:31;101971.19;;;7.37;100.00
28448;BME280;15675;52.870;-1.416;2022-12-05T13:22:04;101963.97;;;7.51;100.00
28448;BME280;15675;52.870;-1.416;2022-12-05T13:24:31;101971.91;;;7.33;100.00
28448;BME280;15675;52.870;-1.416;2022-12-05T13:27:04;101969.16;;;7.29;100.00
28448;BME280;15675;52.870;-1.416;2022-12-05T13:29:34;101964.25;;;7.36;100.00
28448;BME280;15675;52.870;-1.416;2022-12-05T13:32:02;101965.31;;;7.66;100.00
28448;BME280;15675;52.870;-1.416;2022-12-05T13:36:54;101958.28;;;7.37;100.00
28448;BME280;15675;52.870;-1.416;2022-12-05T13:39:39;101966.47;;;7.25;100.00
28448;BME280;15675;52.870;-1.416;2022-12-05T13:42:27;101960.75;;;7.34;100.00
28448;BME280;15675;52.870;-1.416;2022-12-05T13:44:55;101951.66;;;7.44;100.00
28448;BME280;15675;52.870;-1.416;2022-12-05T13:47:29;101962.50;;;7.35;100.00
28448;BME280;15675;52.870;-1.416;2022-12-05T13:52:39;101947.44;;;7.23;100.00
28448;BME280;15675;52.870;-1.416;2022-12-05T13:55:26;101957.31;;;7.35;100.00
28448;BME280;15675;52.870;-1.416;2022-12-05T13:57:55;101959.75;;;7.31;100.00
28448;BME280;15675;52.870;-1.416;2022-12-05T14:00:27;101949.41;;;7.31;100.00
28448;BME280;15675;52.870;-1.416;2022-12-05T14:03:05;101955.19;;;7.23;100.00
28448;BME280;15675;52.870;-1.416;2022-12-05T14:05:39;101962.50;;;7.35;100.00
28448;BME280;15675;52.870;-1.416;2022-12-05T14:15:48;101963.09;;;7.28;100.00
28448;BME280;15675;52.870;-1.416;2022-12-05T14:18:41;101963.75;;;7.47;100.00
28448;BME280;15675;52.870;-1.416;2022-12-05T14:21:23;101954.81;;;7.37;100.00
28448;BME280;15675;52.870;-1.416;2022-12-05T14:30:02;101959.91;;;7.35;100.00
28448;BME280;15675;52.870;-1.416;2022-12-05T14:32:39;101962.75;;;7.41;100.00
28448;BME280;15675;52.870;-1.416;2022-12-05T14:35:27;101959.75;;;7.55;100.00
28448;BME280;15675;52.870;-1.416;2022-12-05T14:37:54;101957.22;;;7.32;100.00
28448;BME280;15675;52.870;-1.416;2022-12-05T14:40:34;101971.53;;;7.00;100.00
28448;BME280;15675;52.870;-1.416;2022-12-05T14:45:35;101963.09;;;7.28;100.00
28448;BME280;15675;52.870;-1.416;2022-12-05T14:48:23;101957.75;;;7.23;100.00
28448;BME280;15675;52.870;-1.416;2022-12-05T14:50:52;101969.28;;;7.09;100.00
28448;BME280;15675;52.870;-1.416;2022-12-05T14:56:20;101968.53;;;7.12;100.00
28448;BME280;15675;52.870;-1.416;2022-12-05T15:01:28;101966.75;;;7.33;100.00
28448;BME280;15675;52.870;-1.416;2022-12-05T15:04:21;101964.22;;;7.35;100.00